North Sioux City, SD (57049)

8:49 PM CST on February 08, 2016 (GMT -0600)
McCook Lake SD | | Change Station
CLOSE
Current Station
Personal Weather Station
Location: McCook Lake, SD
Elevation: 1114 ft
Nearby Weather Stations

Elev 1114 ft 42.54 °N, 96.51 °W | Updated 6 seconds ago

Partly Cloudy
Partly Cloudy
23.3 °F
Feels Like 10 °F
N
16.0
Wind Variable Wind from NW
Gusts 22.0 mph

Today
High -- | Low -- °F
--% Chance of Precip.
Yesterday
High -- | Low -- °F
Precip. -- in
Pressure 30.14 in
Visibility 10.0 miles
Clouds Clear
Windchill 10 °F
Dew Point 22 °F
Humidity 93%
Rainfall 0.02 in
Snow Depth Not available.
7:32 AM 5:48 PM
New Moon, 0% visible
METAR KSUX 090152Z 35020KT 10SM CLR M03/M09 A3009 RMK AO2 SLP205 T10281089
Pressure 30.14 in
Visibility 10.0 miles
Clouds Clear
Windchill 10 °F
Dew Point 22 °F
Humidity 93%
Rainfall 0.02 in
Snow Depth Not available.
7:32 AM 5:48 PM
New Moon, 0% visible
METAR KSUX 090152Z 35020KT 10SM CLR M03/M09 A3009 RMK AO2 SLP205 T10281089

10-Day Weather Forecast

Almanac

Astronomy

Feb. 08, 2016 Rise Set
Actual Time
Civil Twilight
Nautical Twilight
Astronomical Twilight
Moon
Length of Visible Light
Length of Day
Tomorrow will be .
, % of the Moon is Illuminated

Today's Extremes

State Highs State Lows

Community

WunderPhotos

Upload Photos

1,891,527 photos uploaded!

WunderBlog® & News

Nearby

Air Quality

  Air Quality AQ Index Pollutant
Not available.

Snow Depth

Station Depth Elevation

Earthquake Activity

City Distance Mag. Time & Date
Minimum magnitude displayed is 2.5.

Coastal Water Temperatures

Place Temperature

Stations

Nearby Weather Stations

Station Location Temp. Windchill Dew Point Humidity Wind Precip. Elev Updated Type
                   

Watches & Warnings

There are currently no watches in effect.